Time;durP1;ratioP1;P1;durP2;ratioP2;P2;SDS_P1;SDS_P2;PMS_P1;PMS_P2;Temp;Humidity;BMP_temperature;BMP_pressure;BME280_temperature;BME280_humidity;BME280_pressure;Samples;Min_cycle;Max_cycle;Signal;HPM_P1;HPM_P2
2023/04/15 00:00:10;;;;;;;1.75;1.65;;;7.60;99.90;;;;;;5077530;28;20206;-65
2023/04/15 00:02:38;;;;;;;2.10;2.00;;;7.60;99.90;;;;;;5075441;28;20216;-69
2023/04/15 00:05:05;;;;;;;1.65;1.65;;;7.60;99.90;;;;;;5077303;28;21015;-68
2023/04/15 00:07:32;;;;;;;1.48;1.48;;;7.60;99.90;;;;;;5072883;28;20197;-69
2023/04/15 00:09:59;;;;;;;1.60;1.60;;;7.60;99.90;;;;;;5082064;28;20223;-69
2023/04/15 00:12:27;;;;;;;1.60;1.60;;;7.60;99.90;;;;;;5079402;28;20278;-68
2023/04/15 00:14:57;;;;;;;1.80;1.80;;;7.60;99.90;;;;;;5074094;28;20202;-69
2023/04/15 00:17:24;;;;;;;1.70;1.70;;;7.50;99.90;;;;;;5078680;28;20220;-68
2023/04/15 00:19:51;;;;;;;1.85;1.85;;;7.50;99.90;;;;;;5076269;28;20249;-69
2023/04/15 00:22:18;;;;;;;1.60;1.60;;;7.40;99.90;;;;;;5076966;28;20301;-69
2023/04/15 00:24:45;;;;;;;1.55;1.55;;;7.40;99.90;;;;;;5079076;28;20281;-68
2023/04/15 00:27:12;;;;;;;1.70;1.70;;;7.40;99.90;;;;;;5075352;28;20229;-68
2023/04/15 00:29:39;;;;;;;1.60;1.60;;;7.40;99.90;;;;;;5076976;28;20229;-68
2023/04/15 00:32:08;;;;;;;1.77;1.70;;;7.40;99.90;;;;;;5077367;28;20214;-69
2023/04/15 00:34:34;;;;;;;1.75;1.75;;;7.30;99.90;;;;;;5079204;28;20205;-70
2023/04/15 00:37:01;;;;;;;1.73;1.73;;;7.30;99.90;;;;;;5076594;28;20201;-69
2023/04/15 00:39:28;;;;;;;1.98;1.90;;;7.30;99.90;;;;;;5077466;28;20807;-69
2023/04/15 00:41:56;;;;;;;1.95;1.92;;;7.20;99.90;;;;;;5076721;28;20285;-66
2023/04/15 00:44:23;;;;;;;1.63;1.63;;;7.20;99.90;;;;;;5077562;28;20201;-69
2023/04/15 00:46:51;;;;;;;1.80;1.80;;;7.20;99.90;;;;;;5075332;28;21936;-69
2023/04/15 00:49:20;;;;;;;1.80;1.70;;;7.20;99.90;;;;;;5078616;28;20276;-69
2023/04/15 00:51:47;;;;;;;1.65;1.60;;;7.20;99.90;;;;;;5077177;28;20250;-69
2023/04/15 00:54:14;;;;;;;1.55;1.55;;;7.20;99.90;;;;;;5075372;28;20233;-68
2023/04/15 00:56:41;;;;;;;2.00;1.90;;;7.20;99.90;;;;;;5077973;28;20234;-69
2023/04/15 00:59:08;;;;;;;1.92;1.83;;;7.10;99.90;;;;;;5075307;28;20217;-69
2023/04/15 01:01:37;;;;;;;2.00;1.90;;;7.10;99.90;;;;;;5077701;28;20292;-69
2023/04/15 01:04:04;;;;;;;1.92;1.92;;;7.10;99.90;;;;;;5076069;28;20205;-68
2023/04/15 01:06:33;;;;;;;1.90;1.75;;;7.10;99.90;;;;;;5077162;28;20265;-67
2023/04/15 01:09:00;;;;;;;1.90;1.80;;;7.10;99.90;;;;;;5079176;28;20640;-68
2023/04/15 01:11:27;;;;;;;1.83;1.80;;;7.00;99.90;;;;;;5077524;28;20264;-68
2023/04/15 01:13:56;;;;;;;2.00;1.90;;;7.00;99.90;;;;;;5078125;28;20197;-67
2023/04/15 01:16:23;;;;;;;2.03;1.92;;;7.00;99.90;;;;;;5078297;28;20237;-68
2023/04/15 01:18:50;;;;;;;1.65;1.60;;;6.90;99.90;;;;;;5079784;28;20225;-68
2023/04/15 01:21:18;;;;;;;1.77;1.75;;;6.90;99.90;;;;;;5080712;28;20198;-69
2023/04/15 01:23:47;;;;;;;1.70;1.70;;;6.80;99.90;;;;;;5078246;28;20673;-68
2023/04/15 01:26:16;;;;;;;1.85;1.80;;;6.80;99.90;;;;;;5077768;28;20208;-68
2023/04/15 01:28:43;;;;;;;1.92;1.83;;;6.80;99.90;;;;;;5083989;28;20222;-71
2023/04/15 01:31:12;;;;;;;1.67;1.67;;;6.70;99.90;;;;;;5080238;28;20253;-67
2023/04/15 01:33:39;;;;;;;1.95;1.85;;;6.80;99.90;;;;;;5081740;28;20198;-68
2023/04/15 01:36:08;;;;;;;1.75;1.75;;;6.70;99.90;;;;;;5078027;28;20209;-66
2023/04/15 01:38:36;;;;;;;2.05;1.95;;;6.70;99.90;;;;;;5080169;28;20263;-68
2023/04/15 01:41:03;;;;;;;2.08;1.98;;;6.60;99.90;;;;;;5079013;28;20251;-67
2023/04/15 01:43:32;;;;;;;1.77;1.77;;;6.60;99.90;;;;;;5079232;28;20296;-68
2023/04/15 01:45:58;;;;;;;2.05;1.95;;;6.60;99.90;;;;;;5083520;28;20290;-68
2023/04/15 01:48:26;;;;;;;1.90;1.90;;;6.60;99.90;;;;;;5077931;28;20313;-68
2023/04/15 01:50:56;;;;;;;1.88;1.80;;;6.60;99.90;;;;;;5080480;28;20213;-68
2023/04/15 01:53:23;;;;;;;1.95;1.85;;;6.50;99.90;;;;;;5078592;28;20251;-69
2023/04/15 01:55:50;;;;;;;2.30;2.20;;;6.50;99.90;;;;;;5082032;28;20252;-69
2023/04/15 01:58:17;;;;;;;1.88;1.77;;;6.50;99.90;;;;;;5077835;28;20309;-69
2023/04/15 02:00:45;;;;;;;2.00;1.90;;;6.50;99.90;;;;;;5077744;28;20635;-68
2023/04/15 02:03:12;;;;;;;2.05;1.95;;;6.50;99.90;;;;;;5073347;28;20227;-68
2023/04/15 02:05:39;;;;;;;1.83;1.83;;;6.40;99.90;;;;;;5077443;28;20202;-68
2023/04/15 02:08:06;;;;;;;1.73;1.73;;;6.40;99.90;;;;;;5078054;28;20230;-68
2023/04/15 02:10:33;;;;;;;2.00;1.90;;;6.50;99.90;;;;;;5078918;28;20225;-68
2023/04/15 02:13:00;;;;;;;2.08;1.98;;;6.40;99.90;;;;;;5076933;28;20684;-68
2023/04/15 02:15:27;;;;;;;2.00;1.90;;;6.40;99.90;;;;;;5078032;28;20293;-67
2023/04/15 02:17:55;;;;;;;1.95;1.85;;;6.40;99.90;;;;;;5080094;28;20234;-67
2023/04/15 02:20:22;;;;;;;1.80;1.80;;;6.30;99.90;;;;;;5074916;28;20301;-68
2023/04/15 02:22:50;;;;;;;1.88;1.88;;;6.30;99.90;;;;;;5077002;28;20747;-67
2023/04/15 02:25:17;;;;;;;2.55;2.38;;;6.30;99.90;;;;;;5079282;28;20237;-68
2023/04/15 02:27:44;;;;;;;2.17;2.08;;;6.20;99.90;;;;;;5080329;28;20236;-68
2023/04/15 02:30:11;;;;;;;1.60;1.60;;;6.20;99.90;;;;;;5080719;28;20245;-68
2023/04/15 02:32:38;;;;;;;1.63;1.60;;;6.10;99.90;;;;;;5077549;28;20896;-68
2023/04/15 02:35:08;;;;;;;1.70;1.70;;;6.10;99.90;;;;;;5079702;28;20288;-68
2023/04/15 02:37:40;;;;;;;2.05;1.98;;;6.00;99.90;;;;;;5079001;28;20241;-68
2023/04/15 02:40:09;;;;;;;2.15;2.05;;;6.00;99.90;;;;;;5077541;28;20856;-68
2023/04/15 02:42:36;;;;;;;1.92;1.83;;;6.00;99.90;;;;;;5081557;28;20217;-68
2023/04/15 02:45:03;;;;;;;1.88;1.80;;;6.00;99.90;;;;;;5079856;28;20197;-67
2023/04/15 02:47:30;;;;;;;1.58;1.58;;;6.00;99.90;;;;;;5078892;28;20292;-68
2023/04/15 02:49:59;;;;;;;2.35;2.25;;;6.00;99.90;;;;;;5080251;28;20308;-68
2023/04/15 02:52:27;;;;;;;1.88;1.85;;;6.00;99.90;;;;;;5079282;28;20291;-68
2023/04/15 02:54:56;;;;;;;2.20;2.10;;;6.00;99.90;;;;;;5079814;28;20259;-67
2023/04/15 02:57:23;;;;;;;2.08;1.98;;;6.00;99.90;;;;;;5080178;28;20210;-68
2023/04/15 02:59:50;;;;;;;2.35;2.10;;;5.90;99.90;;;;;;5079003;28;20312;-68
2023/04/15 03:02:17;;;;;;;2.30;2.20;;;5.90;99.90;;;;;;5080524;28;20833;-68
2023/04/15 03:04:44;;;;;;;1.90;1.85;;;5.90;99.90;;;;;;5077896;28;20198;-68
2023/04/15 03:07:11;;;;;;;2.00;1.90;;;5.80;99.90;;;;;;5074522;28;20193;-68
2023/04/15 03:09:40;;;;;;;2.17;2.08;;;5.80;99.90;;;;;;5079369;28;20291;-68
2023/04/15 03:12:07;;;;;;;2.10;2.03;;;5.80;99.90;;;;;;5078058;28;20318;-68
2023/04/15 03:14:34;;;;;;;1.70;1.70;;;5.80;99.90;;;;;;5078501;28;20236;-68
2023/04/15 03:17:01;;;;;;;1.70;1.70;;;5.90;99.90;;;;;;5077139;28;20213;-69
2023/04/15 03:19:28;;;;;;;1.90;1.80;;;5.90;99.90;;;;;;5082284;28;20348;-68
2023/04/15 03:21:55;;;;;;;1.70;1.70;;;5.80;99.90;;;;;;5077521;28;20288;-68
2023/04/15 03:24:21;;;;;;;2.05;1.95;;;5.80;99.90;;;;;;5076851;28;20264;-67
2023/04/15 03:26:50;;;;;;;2.05;1.95;;;5.80;99.90;;;;;;5081816;28;20297;-68
2023/04/15 03:29:17;;;;;;;2.20;2.10;;;5.80;99.90;;;;;;5076434;28;20236;-68
2023/04/15 03:31:44;;;;;;;2.00;1.90;;;5.80;99.90;;;;;;5079724;28;20267;-68
2023/04/15 03:34:11;;;;;;;1.90;1.90;;;5.80;99.90;;;;;;5074251;28;20281;-67
2023/04/15 03:36:38;;;;;;;2.38;2.28;;;5.80;99.90;;;;;;5077612;28;20233;-69
2023/04/15 03:39:05;;;;;;;2.00;1.90;;;5.90;99.90;;;;;;5076047;28;20230;-69
2023/04/15 03:41:32;;;;;;;2.20;2.10;;;5.90;99.90;;;;;;5079166;28;20237;-67
2023/04/15 03:44:01;;;;;;;2.22;2.13;;;5.90;99.90;;;;;;5081106;28;20204;-68
2023/04/15 03:46:28;;;;;;;2.08;1.98;;;5.90;99.90;;;;;;5081851;28;20302;-68
2023/04/15 03:48:55;;;;;;;2.03;2.00;;;6.00;99.90;;;;;;5077889;28;20214;-68
2023/04/15 03:51:21;;;;;;;1.83;1.83;;;6.00;99.90;;;;;;5076951;28;20699;-68
2023/04/15 03:53:48;;;;;;;1.98;1.88;;;5.90;99.90;;;;;;5080220;28;20338;-68
2023/04/15 03:56:16;;;;;;;2.25;2.15;;;5.90;99.90;;;;;;5078516;28;20294;-68
2023/04/15 03:58:43;;;;;;;2.42;2.33;;;5.90;99.90;;;;;;5078302;28;20628;-68
2023/04/15 04:01:11;;;;;;;2.22;2.13;;;5.90;99.90;;;;;;5072738;28;20278;-68
2023/04/15 04:03:38;;;;;;;2.30;2.20;;;5.80;99.90;;;;;;5078437;28;20259;-68
2023/04/15 04:06:05;;;;;;;2.00;1.90;;;5.80;99.90;;;;;;5076168;28;20210;-68
2023/04/15 04:08:32;;;;;;;2.15;2.05;;;5.80;99.90;;;;;;5075650;28;20256;-68
2023/04/15 04:10:59;;;;;;;2.30;2.20;;;5.80;99.90;;;;;;5089632;28;20214;-68
2023/04/15 04:13:25;;;;;;;2.20;2.10;;;5.80;99.90;;;;;;5087704;28;20201;-68
2023/04/15 04:15:52;;;;;;;1.92;1.83;;;5.90;99.90;;;;;;5093890;28;20225;-68
2023/04/15 04:18:21;;;;;;;2.38;2.28;;;5.90;99.90;;;;;;5092324;28;20225;-68
2023/04/15 04:20:48;;;;;;;1.77;1.77;;;5.90;99.90;;;;;;5098047;28;20202;-69
2023/04/15 04:23:15;;;;;;;2.17;2.08;;;5.90;99.90;;;;;;5093015;28;20255;-68
2023/04/15 04:25:42;;;;;;;2.30;2.20;;;5.80;99.90;;;;;;5093834;28;20257;-67
2023/04/15 04:28:10;;;;;;;2.08;2.03;;;5.70;99.90;;;;;;5081430;28;20221;-68
2023/04/15 04:30:37;;;;;;;2.22;2.13;;;5.60;99.90;;;;;;5073668;28;20456;-68
2023/04/15 04:33:04;;;;;;;1.83;1.80;;;5.60;99.90;;;;;;5072926;28;20293;-68
2023/04/15 04:35:33;;;;;;;2.22;2.13;;;5.60;99.90;;;;;;5076119;28;20739;-68
2023/04/15 04:38:00;;;;;;;1.98;1.98;;;5.60;99.90;;;;;;5074211;28;20225;-68
2023/04/15 04:40:27;;;;;;;2.40;2.30;;;5.50;99.90;;;;;;5072174;28;20595;-67
2023/04/15 04:42:54;;;;;;;2.33;2.20;;;5.60;99.90;;;;;;5074290;28;20331;-68
2023/04/15 04:45:21;;;;;;;2.83;2.63;;;5.60;99.90;;;;;;5075619;28;20664;-68
2023/04/15 04:47:48;;;;;;;2.83;2.70;;;5.60;99.90;;;;;;5074631;28;20279;-67
2023/04/15 04:50:15;;;;;;;2.92;2.72;;;5.60;99.90;;;;;;5071114;28;20198;-68
2023/04/15 04:52:43;;;;;;;2.60;2.50;;;5.60;99.90;;;;;;5070428;28;20205;-67
2023/04/15 04:55:11;;;;;;;2.25;2.15;;;5.60;99.90;;;;;;5076273;28;20361;-68
2023/04/15 04:57:38;;;;;;;2.20;2.10;;;5.70;99.90;;;;;;5079076;28;20215;-67
2023/04/15 05:00:07;;;;;;;2.50;2.40;;;5.70;99.90;;;;;;5078570;28;20245;-68
2023/04/15 05:02:34;;;;;;;2.50;2.40;;;5.60;99.90;;;;;;5077053;28;20194;-67
2023/04/15 05:05:01;;;;;;;2.33;2.22;;;5.60;99.90;;;;;;5077555;28;20205;-67
2023/04/15 05:07:28;;;;;;;2.42;2.33;;;5.50;99.90;;;;;;5079871;28;20259;-68
2023/04/15 05:09:56;;;;;;;2.40;2.30;;;5.50;99.90;;;;;;5078333;28;20271;-67
2023/04/15 05:12:23;;;;;;;2.45;2.35;;;5.50;99.90;;;;;;5077217;28;20233;-67
2023/04/15 05:14:50;;;;;;;2.70;2.50;;;5.60;99.90;;;;;;5078306;28;20198;-67
2023/04/15 05:17:17;;;;;;;2.50;2.30;;;5.60;99.90;;;;;;5072537;28;20236;-68
2023/04/15 05:19:44;;;;;;;2.55;2.45;;;5.60;99.90;;;;;;5074421;28;20245;-68
2023/04/15 05:22:11;;;;;;;2.60;2.40;;;5.60;99.90;;;;;;5074761;28;20692;-68
2023/04/15 05:24:38;;;;;;;2.80;2.60;;;5.60;99.90;;;;;;5073264;28;20202;-68
2023/04/15 05:27:07;;;;;;;2.05;2.00;;;5.60;99.90;;;;;;5075510;28;20301;-67
2023/04/15 05:29:34;;;;;;;2.33;2.22;;;5.60;99.90;;;;;;5080093;28;20305;-67
2023/04/15 05:32:01;;;;;;;2.40;2.30;;;5.60;99.90;;;;;;5079812;28;20225;-67
2023/04/15 05:34:28;;;;;;;2.38;2.00;;;5.60;99.90;;;;;;5079761;28;20230;-68
2023/04/15 05:36:55;;;;;;;2.10;2.00;;;5.60;99.90;;;;;;5074532;28;20614;-68
2023/04/15 05:39:22;;;;;;;2.47;2.38;;;5.70;99.90;;;;;;5079204;28;20218;-68
2023/04/15 05:41:49;;;;;;;2.15;2.05;;;5.70;99.90;;;;;;5077466;28;20755;-68
2023/04/15 05:44:17;;;;;;;2.90;2.15;;;5.80;99.90;;;;;;5077900;28;20286;-67
2023/04/15 05:46:44;;;;;;;2.40;2.30;;;5.80;99.90;;;;;;5076830;28;20233;-67
2023/04/15 05:49:11;;;;;;;2.53;2.42;;;5.80;99.90;;;;;;5075390;28;20217;-68
2023/04/15 05:51:38;;;;;;;2.75;2.65;;;5.90;99.90;;;;;;5077544;28;20257;-68
2023/04/15 05:54:05;;;;;;;2.63;2.53;;;5.90;99.90;;;;;;5077310;28;20206;-70
2023/04/15 05:56:32;;;;;;;2.40;2.30;;;6.00;99.90;;;;;;5074381;28;20201;-68
2023/04/15 05:58:59;;;;;;;2.53;2.42;;;6.00;99.90;;;;;;5077934;28;20217;-68
2023/04/15 06:01:28;;;;;;;2.28;2.17;;;6.00;99.90;;;;;;5075842;28;20285;-68
2023/04/15 06:03:55;;;;;;;2.45;2.25;;;6.00;99.90;;;;;;5078242;28;20232;-68
2023/04/15 06:06:22;;;;;;;2.30;2.20;;;6.10;99.90;;;;;;5077871;28;20201;-69
2023/04/15 06:08:49;;;;;;;2.50;2.40;;;6.10;99.90;;;;;;5080213;28;20298;-68
2023/04/15 06:11:16;;;;;;;2.25;2.15;;;6.10;99.90;;;;;;5081130;28;20249;-68
2023/04/15 06:13:43;;;;;;;2.58;2.47;;;6.20;99.90;;;;;;5082163;28;20275;-69
2023/04/15 06:16:10;;;;;;;2.70;2.60;;;6.20;99.90;;;;;;5077600;28;20281;-67
2023/04/15 06:18:39;;;;;;;2.33;2.22;;;6.30;99.90;;;;;;5075600;28;20741;-67
2023/04/15 06:21:06;;;;;;;2.35;2.25;;;6.40;99.90;;;;;;5081779;28;20205;-67
2023/04/15 06:23:35;;;;;;;2.60;2.40;;;6.50;99.90;;;;;;5079410;28;20333;-67
2023/04/15 06:26:02;;;;;;;2.42;2.30;;;6.60;99.90;;;;;;5080105;28;20205;-67
2023/04/15 06:28:28;;;;;;;2.13;2.03;;;6.70;99.90;;;;;;5076865;28;20711;-67
2023/04/15 06:30:56;;;;;;;2.38;2.28;;;6.80;99.90;;;;;;5080019;28;20237;-68
2023/04/15 06:33:23;;;;;;;2.20;2.10;;;6.90;99.90;;;;;;5079594;28;20206;-67
2023/04/15 06:35:51;;;;;;;2.55;2.38;;;6.90;99.90;;;;;;5080452;28;20304;-68
2023/04/15 06:38:18;;;;;;;2.40;2.30;;;7.10;99.90;;;;;;5081811;28;20245;-67
2023/04/15 06:40:45;;;;;;;2.58;2.47;;;7.10;99.90;;;;;;5080228;28;20230;-68
2023/04/15 06:43:12;;;;;;;2.20;2.10;;;7.20;99.90;;;;;;5074825;28;20966;-68
2023/04/15 06:45:39;;;;;;;2.40;2.20;;;7.30;99.90;;;;;;5079717;28;20233;-68
2023/04/15 06:48:06;;;;;;;2.55;2.45;;;7.50;99.90;;;;;;5077646;28;20776;-69
2023/04/15 06:50:34;;;;;;;2.38;2.28;;;7.60;99.90;;;;;;5073712;28;20198;-68
2023/04/15 06:53:02;;;;;;;2.47;2.38;;;7.60;99.90;;;;;;5080867;28;20214;-68
2023/04/15 06:55:30;;;;;;;2.58;2.47;;;7.70;99.90;;;;;;5078490;28;20201;-67
2023/04/15 06:57:57;;;;;;;3.15;2.90;;;7.80;99.90;;;;;;5081456;28;20573;-68
2023/04/15 07:00:24;;;;;;;3.03;2.83;;;7.90;99.90;;;;;;5074335;28;20603;-69
2023/04/15 07:02:51;;;;;;;2.63;2.53;;;8.00;99.90;;;;;;5081083;28;20266;-68
2023/04/15 07:05:19;;;;;;;3.22;3.03;;;8.20;99.90;;;;;;5079452;28;20584;-68
2023/04/15 07:07:46;;;;;;;3.00;2.80;;;8.40;99.90;;;;;;5078070;28;20197;-68
2023/04/15 07:10:14;;;;;;;4.15;3.00;;;8.80;99.90;;;;;;5079143;28;20208;-69
2023/04/15 07:12:41;;;;;;;4.05;3.60;;;9.30;99.90;;;;;;5087339;28;20269;-69
2023/04/15 07:15:09;;;;;;;5.85;5.25;;;9.50;99.90;;;;;;5086640;28;20201;-68
2023/04/15 07:17:36;;;;;;;4.70;3.90;;;9.80;99.90;;;;;;5087635;28;20198;-70
2023/04/15 07:20:03;;;;;;;4.70;3.10;;;9.80;99.90;;;;;;5092017;28;20213;-69
2023/04/15 07:22:30;;;;;;;3.55;3.30;;;9.80;99.90;;;;;;5088241;28;20730;-72
2023/04/15 07:24:57;;;;;;;4.25;3.40;;;9.80;99.90;;;;;;5091062;28;20236;-70
2023/04/15 07:27:26;;;;;;;3.60;3.30;;;10.00;99.90;;;;;;5076574;28;20345;-72
2023/04/15 07:29:52;;;;;;;2.92;2.65;;;10.10;99.90;;;;;;5077340;28;20213;-70
2023/04/15 07:32:20;;;;;;;2.45;2.25;;;10.30;99.90;;;;;;5076038;28;20300;-72
2023/04/15 07:34:47;;;;;;;1.90;1.80;;;10.80;99.90;;;;;;5075021;28;20205;-72
2023/04/15 07:37:14;;;;;;;2.45;2.00;;;11.30;99.90;;;;;;5073584;28;20281;-71
2023/04/15 07:39:41;;;;;;;2.13;1.92;;;11.70;99.90;;;;;;5073263;28;20603;-74
2023/04/15 07:42:08;;;;;;;2.28;2.08;;;11.80;99.90;;;;;;5077800;28;20221;-70
2023/04/15 07:44:36;;;;;;;2.53;2.33;;;11.90;99.90;;;;;;5076472;28;20297;-74
2023/04/15 07:47:03;;;;;;;2.05;1.95;;;12.20;99.90;;;;;;5074484;28;20259;-73
2023/04/15 07:49:30;;;;;;;2.10;2.00;;;12.50;99.90;;;;;;5075778;28;20654;-71
2023/04/15 07:51:58;;;;;;;2.20;2.05;;;12.80;99.90;;;;;;5076528;28;20221;-70
2023/04/15 07:54:26;;;;;;;2.00;1.80;;;13.10;99.90;;;;;;5077206;28;20296;-70
2023/04/15 07:56:53;;;;;;;2.33;2.22;;;12.90;99.90;;;;;;5076527;28;20225;-71
2023/04/15 07:59:20;;;;;;;3.40;2.22;;;12.80;99.90;;;;;;5074204;28;20715;-69
2023/04/15 08:01:48;;;;;;;1.85;1.75;;;13.00;99.90;;;;;;5071994;28;20187;-70
2023/04/15 08:04:16;;;;;;;2.20;2.10;;;13.10;99.90;;;;;;5073783;28;20205;-71
2023/04/15 08:06:43;;;;;;;2.50;2.30;;;13.10;99.90;;;;;;5074449;28;20232;-71
2023/04/15 08:09:10;;;;;;;3.45;2.25;;;12.90;99.90;;;;;;5075471;28;20221;-71
2023/04/15 08:11:37;;;;;;;3.25;2.20;;;12.70;99.90;;;;;;5075068;28;20823;-70
2023/04/15 08:14:04;;;;;;;2.72;1.88;;;12.40;99.90;;;;;;5074589;28;20982;-70
2023/04/15 08:16:31;;;;;;;1.98;1.63;;;12.40;99.90;;;;;;5069408;28;20225;-72
2023/04/15 08:19:00;;;;;;;2.35;1.77;;;12.40;99.90;;;;;;5073101;28;20267;-71
2023/04/15 08:21:29;;;;;;;1.75;1.65;;;12.80;99.90;;;;;;5073946;28;20199;-70
2023/04/15 08:23:56;;;;;;;2.75;1.80;;;13.30;99.90;;;;;;5077402;28;20299;-69
2023/04/15 08:26:23;;;;;;;2.33;2.13;;;13.80;99.90;;;;;;5074185;28;20221;-70
2023/04/15 08:28:50;;;;;;;1.80;1.70;;;14.20;99.90;;;;;;5073599;28;20772;-71
2023/04/15 08:31:18;;;;;;;1.88;1.70;;;14.60;99.90;;;;;;5072183;28;20305;-70
2023/04/15 08:33:46;;;;;;;2.78;1.65;;;14.80;99.90;;;;;;5073325;28;20316;-70
2023/04/15 08:36:14;;;;;;;3.33;1.67;;;14.80;99.90;;;;;;5070593;28;20266;-71
2023/04/15 08:38:41;;;;;;;1.92;1.80;;;14.60;99.90;;;;;;5068343;28;20221;-71
2023/04/15 08:41:13;;;;;;;2.33;1.70;;;14.50;99.90;;;;;;5070522;28;20297;-69
2023/04/15 08:43:49;;;;;;;2.70;1.98;;;14.30;99.90;;;;;;5069740;28;20201;-70
2023/04/15 08:46:16;;;;;;;1.90;1.80;;;14.40;99.90;;;;;;5073981;28;20198;-70
2023/04/15 08:48:44;;;;;;;2.70;1.85;;;14.60;99.90;;;;;;5071891;28;20252;-73
2023/04/15 08:51:14;;;;;;;3.05;1.38;;;14.70;99.90;;;;;;5075735;28;20338;-70
2023/04/15 08:53:46;;;;;;;1.95;1.65;;;14.70;99.90;;;;;;5071890;28;20215;-70
2023/04/15 08:56:15;;;;;;;1.77;1.67;;;14.50;99.90;;;;;;5072590;28;20286;-70
2023/04/15 08:58:43;;;;;;;3.00;1.60;;;14.20;99.90;;;;;;5072417;28;20895;-69
2023/04/15 09:01:11;;;;;;;1.73;1.63;;;14.30;99.90;;;;;;5072747;28;20679;-70
2023/04/15 09:03:38;;;;;;;1.92;1.75;;;14.70;99.90;;;;;;5074307;28;20621;-70
2023/04/15 09:06:05;;;;;;;1.95;1.55;;;15.20;99.90;;;;;;5076240;28;20280;-70
2023/04/15 09:08:33;;;;;;;2.65;1.80;;;15.40;99.90;;;;;;5069599;28;20323;-69
2023/04/15 09:11:02;;;;;;;1.55;1.42;;;15.40;99.90;;;;;;5077070;28;20917;-70
2023/04/15 09:13:29;;;;;;;1.50;1.40;;;15.30;99.90;;;;;;5073875;28;20243;-70
2023/04/15 09:15:57;;;;;;;1.50;1.40;;;15.20;99.90;;;;;;5076610;28;20345;-70
2023/04/15 09:18:31;;;;;;;1.88;1.55;;;15.10;99.90;;;;;;5072728;28;20217;-69
2023/04/15 09:21:05;;;;;;;1.40;1.30;;;15.10;99.90;;;;;;5071209;28;20311;-71
2023/04/15 09:23:33;;;;;;;1.73;1.60;;;14.80;99.90;;;;;;5073055;28;20250;-70
2023/04/15 09:26:02;;;;;;;1.80;1.70;;;14.50;99.90;;;;;;5075675;28;20193;-71
2023/04/15 09:28:29;;;;;;;1.77;1.27;;;14.30;99.90;;;;;;5071391;28;20221;-71
2023/04/15 09:30:57;;;;;;;1.10;1.10;;;14.30;99.90;;;;;;5070002;28;20745;-71
2023/04/15 09:33:25;;;;;;;2.05;1.40;;;14.20;99.90;;;;;;5071399;28;20226;-73
2023/04/15 09:36:00;;;;;;;1.50;1.40;;;14.20;99.90;;;;;;5073136;28;20197;-71
2023/04/15 09:38:27;;;;;;;1.40;1.30;;;14.20;99.90;;;;;;5077260;28;20293;-71
2023/04/15 09:40:54;;;;;;;1.48;1.38;;;14.20;99.90;;;;;;5073986;28;20308;-71
2023/04/15 09:43:24;;;;;;;1.42;1.42;;;14.30;99.90;;;;;;5073607;28;20579;-71
2023/04/15 09:45:53;;;;;;;1.85;1.40;;;14.40;99.90;;;;;;5075479;28;20204;-70
2023/04/15 09:48:22;;;;;;;1.55;1.38;;;14.60;99.90;;;;;;5076310;28;20249;-70
2023/04/15 09:50:49;;;;;;;2.28;1.40;;;14.60;99.90;;;;;;5077106;28;20797;-70
2023/04/15 09:53:19;;;;;;;1.40;1.30;;;14.90;99.90;;;;;;5075613;28;20300;-70
2023/04/15 09:55:49;;;;;;;1.48;1.38;;;15.20;99.90;;;;;;5076930;28;20194;-70
2023/04/15 09:58:19;;;;;;;2.42;1.70;;;15.30;99.90;;;;;;5076505;28;20565;-69
2023/04/15 10:00:49;;;;;;;2.45;1.65;;;15.40;99.90;;;;;;5077528;28;20198;-70
2023/04/15 10:03:20;;;;;;;1.60;1.50;;;15.40;99.90;;;;;;5077041;28;20205;-69
2023/04/15 10:05:50;;;;;;;1.40;1.30;;;15.40;99.90;;;;;;5078383;28;20201;-70
2023/04/15 10:08:19;;;;;;;1.73;1.38;;;15.40;99.90;;;;;;5075465;28;20295;-70
2023/04/15 10:10:46;;;;;;;1.50;1.40;;;15.30;99.90;;;;;;5074673;28;20685;-71
2023/04/15 10:13:15;;;;;;;1.27;1.17;;;15.20;99.90;;;;;;5072820;28;20240;-70
2023/04/15 10:15:46;;;;;;;1.80;1.70;;;15.20;99.90;;;;;;5074016;28;20641;-70
2023/04/15 10:18:16;;;;;;;1.30;1.30;;;15.20;99.90;;;;;;5076245;28;20735;-69
2023/04/15 10:20:45;;;;;;;1.40;1.30;;;15.30;99.90;;;;;;5073262;28;20688;-70
2023/04/15 10:23:12;;;;;;;1.50;1.40;;;15.40;99.90;;;;;;5072677;28;20213;-70
2023/04/15 10:25:40;;;;;;;1.50;1.40;;;15.60;99.90;;;;;;5077323;28;20656;-70
2023/04/15 10:28:07;;;;;;;1.48;1.38;;;15.70;99.90;;;;;;5077051;28;20201;-70
2023/04/15 10:30:35;;;;;;;1.13;1.10;;;15.50;99.90;;;;;;5074170;28;20202;-71
2023/04/15 10:33:03;;;;;;;1.45;1.35;;;15.40;99.90;;;;;;5078552;28;20257;-71
2023/04/15 10:35:33;;;;;;;1.92;1.48;;;15.50;99.90;;;;;;5074734;28;20293;-74
2023/04/15 10:38:00;;;;;;;1.50;1.23;;;15.70;99.90;;;;;;5078276;28;20229;-71
2023/04/15 10:40:30;;;;;;;1.35;1.20;;;15.80;99.90;;;;;;5074411;28;20212;-71
2023/04/15 10:42:57;;;;;;;1.23;1.23;;;15.80;99.90;;;;;;5080054;28;20202;-72
2023/04/15 10:45:27;;;;;;;1.40;1.30;;;16.00;99.90;;;;;;5077276;28;20288;-71
2023/04/15 10:47:56;;;;;;;1.50;1.40;;;15.70;99.90;;;;;;5076751;28;20198;-71
2023/04/15 10:50:25;;;;;;;3.47;1.40;;;15.50;99.90;;;;;;5071001;28;20733;-71
2023/04/15 10:52:54;;;;;;;1.60;1.50;;;15.20;99.90;;;;;;5076963;28;20221;-71
2023/04/15 10:55:23;;;;;;;1.30;1.20;;;15.00;99.90;;;;;;5076468;28;20213;-72
2023/04/15 10:57:53;;;;;;;1.58;1.45;;;14.90;99.90;;;;;;5075046;28;20198;-71
2023/04/15 11:00:24;;;;;;;1.33;1.23;;;14.90;99.90;;;;;;5073719;28;20197;-71
2023/04/15 11:02:54;;;;;;;1.70;1.60;;;14.90;99.90;;;;;;5079767;28;20825;-72
2023/04/15 11:05:44;;;;;;;1.58;1.48;;;14.80;99.90;;;;;;5076135;28;20201;-71
2023/04/15 11:08:13;;;;;;;1.50;1.40;;;14.70;99.90;;;;;;5070480;28;20219;-72
2023/04/15 11:10:55;;;;;;;1.92;1.58;;;14.70;99.90;;;;;;5073093;28;20228;-73
2023/04/15 11:13:25;;;;;;;1.50;1.40;;;14.60;99.90;;;;;;5076878;28;20253;-72
2023/04/15 11:15:57;;;;;;;1.60;1.50;;;14.60;99.90;;;;;;5071376;28;20202;-71
2023/04/15 11:18:26;;;;;;;1.75;1.65;;;14.70;99.90;;;;;;5075290;28;20217;-72
2023/04/15 11:20:56;;;;;;;1.40;1.30;;;14.70;99.90;;;;;;5074389;28;20198;-72
2023/04/15 11:23:33;;;;;;;1.77;1.45;;;14.80;99.90;;;;;;5076175;28;20442;-70
2023/04/15 11:26:02;;;;;;;1.40;1.27;;;14.70;99.90;;;;;;5072475;28;20289;-71
2023/04/15 11:28:32;;;;;;;3.15;1.45;;;14.70;99.90;;;;;;5073186;28;20228;-71
2023/04/15 11:31:10;;;;;;;2.28;1.70;;;14.90;99.90;;;;;;5075903;28;20197;-72
2023/04/15 11:33:38;;;;;;;2.25;1.50;;;15.00;99.90;;;;;;5074042;28;20330;-71
2023/04/15 11:36:05;;;;;;;1.42;1.33;;;15.10;99.90;;;;;;5073200;28;20312;-73
2023/04/15 11:38:35;;;;;;;1.58;1.48;;;15.20;99.90;;;;;;5076099;28;20718;-72
2023/04/15 11:41:02;;;;;;;1.35;1.25;;;15.50;99.90;;;;;;5072791;28;20210;-72
2023/04/15 11:43:34;;;;;;;1.83;1.73;;;15.80;99.90;;;;;;5075822;28;20271;-71
2023/04/15 11:46:02;;;;;;;1.60;1.30;;;16.20;99.90;;;;;;5073751;28;21223;-71
2023/04/15 11:48:30;;;;;;;1.40;1.30;;;16.50;99.90;;;;;;5073565;28;20262;-72
2023/04/15 11:51:00;;;;;;;2.38;1.67;;;16.80;99.90;;;;;;5076740;28;20229;-70
2023/04/15 11:53:39;;;;;;;1.30;1.20;;;17.00;99.90;;;;;;5074490;28;20762;-73
2023/04/15 11:56:08;;;;;;;1.20;1.10;;;16.80;99.90;;;;;;5072802;28;20638;-70
2023/04/15 11:58:36;;;;;;;1.55;1.45;;;16.50;99.70;;;;;;5071784;28;20589;-71
2023/04/15 12:01:05;;;;;;;1.60;1.50;;;16.30;99.90;;;;;;5075430;28;20208;-71
2023/04/15 12:03:37;;;;;;;1.58;1.33;;;16.30;99.90;;;;;;5072524;28;20251;-71
2023/04/15 12:06:10;;;;;;;1.45;1.35;;;16.20;99.90;;;;;;5066784;28;20290;-72
2023/04/15 12:09:09;;;;;;;1.27;1.17;;;16.00;99.90;;;;;;5074065;28;20267;-71
2023/04/15 12:11:39;;;;;;;1.50;1.40;;;15.70;99.00;;;;;;4989291;28;20192;-74
2023/04/15 12:14:16;;;;;;;1.50;1.40;;;15.40;99.90;;;;;;5056192;28;20304;-74
2023/04/15 12:16:45;;;;;;;2.35;1.48;;;15.30;99.90;;;;;;5072179;28;20732;-71
2023/04/15 12:19:15;;;;;;;4.15;1.40;;;15.40;99.90;;;;;;5065673;28;20232;-74
2023/04/15 12:21:46;;;;;;;1.15;1.10;;;15.30;99.90;;;;;;5070825;28;20201;-70
2023/04/15 12:24:15;;;;;;;1.30;1.20;;;15.30;99.90;;;;;;5072616;28;20208;-70
2023/04/15 12:26:47;;;;;;;1.38;1.25;;;15.50;99.90;;;;;;5070817;28;20267;-71
2023/04/15 12:29:16;;;;;;;1.27;1.10;;;15.60;99.90;;;;;;5070777;28;20299;-71
2023/04/15 12:31:51;;;;;;;2.15;1.25;;;15.80;99.90;;;;;;5073333;28;20707;-69
2023/04/15 12:34:19;;;;;;;1.40;1.30;;;15.90;99.90;;;;;;5070858;28;20213;-70
2023/04/15 12:36:46;;;;;;;1.20;1.20;;;16.10;99.90;;;;;;5071745;28;20197;-69
2023/04/15 12:39:15;;;;;;;1.48;1.38;;;16.10;99.40;;;;;;5068846;28;20340;-69
2023/04/15 12:41:42;;;;;;;1.42;1.33;;;16.10;99.80;;;;;;5070243;28;20295;-70
2023/04/15 12:44:09;;;;;;;1.52;1.25;;;16.30;99.10;;;;;;5070990;28;20233;-70
2023/04/15 12:46:36;;;;;;;1.45;1.15;;;16.50;99.20;;;;;;5071398;28;20212;-69
2023/04/15 12:49:03;;;;;;;1.60;1.50;;;16.60;98.40;;;;;;5072193;28;21605;-70
2023/04/15 12:51:31;;;;;;;1.30;1.20;;;16.80;98.20;;;;;;5074937;28;20264;-72
2023/04/15 12:53:58;;;;;;;1.52;1.23;;;17.10;98.10;;;;;;5071287;28;20221;-71
2023/04/15 12:56:27;;;;;;;1.45;1.35;;;17.40;96.60;;;;;;5070409;28;20210;-72